Time;durP1;ratioP1;P1;durP2;ratioP2;P2;SDS_P1;SDS_P2;PMS_P1;PMS_P2;Temp;Humidity;BMP_temperature;BMP_pressure;BME280_temperature;BME280_humidity;BME280_pressure;Samples;Min_cycle;Max_cycle;Signal;HPM_P1;HPM_P2
2024/01/03 00:00:29;;;;;;;5.88;1.80;;;;;;;7.48;100.00;97728.72;5011870;28;20041;-79
2024/01/03 00:02:57;;;;;;;6.00;1.70;;;;;;;7.45;100.00;97714.88;5032248;28;20051;-79
2024/01/03 00:05:31;;;;;;;4.63;1.00;;;;;;;7.41;100.00;97729.88;5045187;28;20063;-79
2024/01/03 00:07:59;;;;;;;7.80;1.30;;;;;;;7.39;100.00;97713.31;5044912;28;20067;-78
2024/01/03 00:11:02;;;;;;;13.93;2.10;;;;;;;7.38;100.00;97727.34;5046618;28;20486;-79
2024/01/03 00:13:29;;;;;;;4.88;1.58;;;;;;;7.35;100.00;97727.44;5008318;28;20063;-79
2024/01/03 00:16:00;;;;;;;8.25;1.75;;;;;;;7.35;100.00;97724.81;5003999;28;20033;-79
2024/01/03 00:18:54;;;;;;;9.68;1.27;;;;;;;7.34;100.00;97736.22;5031892;28;20041;-78
2024/01/03 00:21:25;;;;;;;9.30;2.33;;;;;;;7.31;100.00;97731.91;5045883;28;20413;-78
2024/01/03 00:23:56;;;;;;;;;;;;;;;7.28;100.00;97721.56;5046089;28;20430;-79
2024/01/03 00:26:25;;;;;;;12.85;2.30;;;;;;;7.27;100.00;97764.38;5037576;28;19925;-79
2024/01/03 00:28:52;;;;;;;11.10;2.03;;;;;;;7.26;100.00;97723.38;5027395;28;20048;-79
2024/01/03 00:31:43;;;;;;;10.90;1.73;;;;;;;7.25;100.00;97737.38;5013068;28;20068;-80
2024/01/03 00:34:23;;;;;;;11.65;1.95;;;;;;;7.26;100.00;97733.84;5010928;28;20617;-79
2024/01/03 00:36:53;;;;;;;10.73;2.33;;;;;;;7.26;100.00;97740.84;5036045;28;20055;-79
2024/01/03 00:39:41;;;;;;;8.77;1.50;;;;;;;7.21;100.00;97734.00;5047742;28;20048;-79
2024/01/03 00:42:08;;;;;;;8.73;1.60;;;;;;;7.21;100.00;97741.84;5014319;28;20075;-79
2024/01/03 00:44:36;;;;;;;3.08;1.10;;;;;;;7.18;100.00;97739.34;5020917;28;20048;-79
2024/01/03 00:47:04;;;;;;;7.93;1.83;;;;;;;7.19;100.00;97758.53;5013783;28;20056;-79
2024/01/03 00:49:33;;;;;;;4.85;1.27;;;;;;;7.17;100.00;97744.63;5038977;28;20508;-79
2024/01/03 00:52:01;;;;;;;7.93;2.28;;;;;;;7.14;100.00;97745.56;5034153;28;20052;-79
2024/01/03 00:54:33;;;;;;;6.78;1.40;;;;;;;7.14;100.00;97773.53;5030862;28;20053;-79
2024/01/03 00:57:01;;;;;;;7.93;1.25;;;;;;;7.13;100.00;97771.81;5043590;28;20060;-79
2024/01/03 00:59:28;;;;;;;8.90;1.70;;;;;;;7.10;100.00;97769.28;5037004;28;20041;-78
2024/01/03 01:01:57;;;;;;;7.60;2.08;;;;;;;7.10;100.00;97782.38;5006568;28;20390;-79
2024/01/03 01:04:24;;;;;;;6.15;1.33;;;;;;;7.07;100.00;97796.44;5042322;28;20056;-79
2024/01/03 01:06:52;;;;;;;9.27;2.38;;;;;;;7.07;100.00;97796.44;5036951;28;20047;-80
2024/01/03 01:09:19;;;;;;;13.73;2.58;;;;;;;7.06;100.00;97768.53;5037789;28;20045;-78
2024/01/03 01:11:46;;;;;;;11.60;1.83;;;;;;;7.06;100.00;97801.72;5029433;28;20060;-78
2024/01/03 01:14:14;;;;;;;11.23;1.88;;;;;;;7.04;100.00;97783.44;5035999;28;20049;-78
2024/01/03 01:16:41;;;;;;;12.40;1.70;;;;;;;7.02;100.00;97800.97;5047556;28;20410;-78
2024/01/03 01:19:09;;;;;;;5.97;1.98;;;;;;;7.00;100.00;97806.25;4999104;28;21645;-78
2024/01/03 01:21:40;;;;;;;9.00;2.00;;;;;;;7.01;100.00;97796.63;5036311;28;20045;-78
2024/01/03 01:24:07;;;;;;;8.02;2.13;;;;;;;7.00;100.00;97821.09;5053424;28;20049;-78
2024/01/03 01:26:36;;;;;;;7.32;1.83;;;;;;;7.00;100.00;97821.09;5029023;28;20071;-78
2024/01/03 01:29:04;;;;;;;9.82;1.95;;;;;;;6.99;100.00;97801.94;5040681;28;20071;-78
2024/01/03 01:31:31;;;;;;;15.30;2.88;;;;;;;6.99;100.00;97824.59;5035696;28;20079;-78
2024/01/03 01:34:00;;;;;;;9.23;2.05;;;;;;;7.00;100.00;97819.31;4993298;28;20060;-78
2024/01/03 01:36:28;;;;;;;4.90;1.40;;;;;;;7.01;100.00;97839.38;5011078;28;20041;-78
2024/01/03 01:38:55;;;;;;;7.18;1.70;;;;;;;7.03;100.00;97839.31;5043772;28;20517;-78
2024/01/03 01:41:23;;;;;;;4.97;1.65;;;;;;;7.03;100.00;97813.13;5044100;28;20036;-78
2024/01/03 01:43:51;;;;;;;7.90;1.75;;;;;;;7.03;100.00;97844.53;5039888;28;20049;-78
2024/01/03 01:46:18;;;;;;;10.73;1.75;;;;;;;7.02;100.00;97841.09;5031693;28;20513;-78
2024/01/03 01:48:46;;;;;;;9.23;1.70;;;;;;;7.00;100.00;97832.41;5006111;28;21036;-79
2024/01/03 01:51:14;;;;;;;15.25;2.22;;;;;;;7.00;100.00;97842.88;5012789;28;20056;-79
2024/01/03 01:53:42;;;;;;;12.07;3.08;;;;;;;6.99;100.00;97849.06;5033772;28;20045;-78
2024/01/03 01:56:10;;;;;;;11.30;2.70;;;;;;;6.99;100.00;97861.25;5015215;28;20056;-78
2024/01/03 01:58:40;;;;;;;8.82;1.80;;;;;;;6.98;100.00;97860.41;5042937;28;20063;-79
2024/01/03 02:01:08;;;;;;;10.15;2.08;;;;;;;6.98;100.00;97846.47;5038424;28;20037;-78
2024/01/03 02:03:37;;;;;;;9.25;1.52;;;;;;;6.99;100.00;97870.00;5010034;28;20457;-79
2024/01/03 02:06:09;;;;;;;15.73;2.35;;;;;;;7.00;100.00;97857.75;5050420;28;20052;-79
2024/01/03 02:08:37;;;;;;;7.53;1.88;;;;;;;7.01;100.00;97849.84;5019089;28;20045;-77
2024/01/03 02:11:04;;;;;;;12.15;2.63;;;;;;;7.02;100.00;97833.22;5044405;28;20491;-78
2024/01/03 02:13:32;;;;;;;16.17;2.45;;;;;;;7.06;100.00;97859.31;5017560;28;20071;-78
2024/01/03 02:16:01;;;;;;;11.52;2.72;;;;;;;7.06;100.00;97862.78;5041047;28;20060;-79
2024/01/03 02:18:29;;;;;;;15.40;2.28;;;;;;;7.08;100.00;97862.75;5019131;28;20056;-79
2024/01/03 02:20:58;;;;;;;13.68;3.47;;;;;;;7.08;100.00;97866.22;5029355;28;20128;-79
2024/01/03 02:23:25;;;;;;;18.73;2.55;;;;;;;7.10;100.00;97861.78;5014484;28;20061;-80
2024/01/03 02:25:53;;;;;;;16.00;2.75;;;;;;;7.12;100.00;97907.13;5046091;28;20052;-79
2024/01/03 02:28:21;;;;;;;10.43;2.42;;;;;;;7.13;100.00;97874.81;5059073;28;20490;-78
2024/01/03 02:30:48;;;;;;;16.40;3.17;;;;;;;7.16;100.00;97900.03;5044914;28;20045;-79
2024/01/03 02:33:16;;;;;;;12.30;2.00;;;;;;;7.16;100.00;97900.88;5036245;28;20049;-78
2024/01/03 02:35:44;;;;;;;15.52;2.40;;;;;;;7.19;100.00;97895.56;4998317;28;20068;-79
2024/01/03 02:38:11;;;;;;;12.20;2.42;;;;;;;7.20;100.00;97915.63;5037844;28;20044;-79
2024/01/03 02:40:38;;;;;;;18.75;3.25;;;;;;;7.21;100.00;97906.00;5043801;28;20033;-79
2024/01/03 02:43:06;;;;;;;14.95;2.67;;;;;;;7.21;100.00;97908.63;5026875;28;20061;-78
2024/01/03 02:45:33;;;;;;;13.00;2.72;;;;;;;7.21;100.00;97914.69;5042371;28;20044;-78
2024/01/03 02:48:02;;;;;;;15.05;2.35;;;;;;;7.22;100.00;97924.28;5037366;28;20060;-79
2024/01/03 02:50:30;;;;;;;8.80;2.05;;;;;;;7.22;100.00;97934.75;4994133;28;20056;-77
2024/01/03 02:52:57;;;;;;;19.80;2.72;;;;;;;7.23;100.00;97923.38;5037513;28;20399;-79
2024/01/03 02:55:24;;;;;;;16.58;2.38;;;;;;;7.21;100.00;97948.75;5025866;28;20072;-78
2024/01/03 02:57:52;;;;;;;9.77;1.88;;;;;;;7.21;100.00;97940.88;5048163;28;20417;-78
2024/01/03 03:00:19;;;;;;;13.45;2.60;;;;;;;7.23;100.00;97951.31;5048570;28;20045;-79
2024/01/03 03:02:47;;;;;;;17.73;2.70;;;;;;;7.23;100.00;97960.03;5051032;28;21262;-78
2024/01/03 03:05:14;;;;;;;8.07;1.95;;;;;;;7.24;100.00;97950.44;5049739;28;20045;-80
2024/01/03 03:07:42;;;;;;;11.32;2.22;;;;;;;7.26;100.00;97959.09;5016504;28;20056;-79
2024/01/03 03:10:14;;;;;;;14.52;2.55;;;;;;;7.28;100.00;97964.28;5041964;28;20448;-79
2024/01/03 03:12:41;;;;;;;14.20;3.13;;;;;;;7.29;100.00;97989.56;5046297;28;20041;-79
2024/01/03 03:15:09;;;;;;;18.05;3.35;;;;;;;7.29;100.00;97989.56;5080549;28;20418;-79
2024/01/03 03:17:36;;;;;;;13.93;2.90;;;;;;;7.28;100.00;97993.97;5036288;28;20088;-78
2024/01/03 03:20:04;;;;;;;9.55;1.98;;;;;;;7.27;100.00;98010.56;5047112;28;20056;-79
2024/01/03 03:22:31;;;;;;;15.30;2.70;;;;;;;7.29;100.00;98014.00;5011026;28;20052;-79
2024/01/03 03:24:59;;;;;;;15.15;2.92;;;;;;;7.30;100.00;98014.88;5034616;28;20045;-79
2024/01/03 03:27:26;;;;;;;13.00;2.15;;;;;;;7.30;100.00;98013.13;5047344;28;20108;-80
2024/01/03 03:29:53;;;;;;;15.75;2.88;;;;;;;7.32;100.00;98031.41;5047357;28;20397;-79
2024/01/03 03:32:21;;;;;;;12.18;2.85;;;;;;;7.34;100.00;98035.69;5048448;28;20041;-79
2024/01/03 03:34:49;;;;;;;14.32;2.60;;;;;;;7.36;100.00;98031.28;5038808;28;20041;-79
2024/01/03 03:37:17;;;;;;;11.55;1.98;;;;;;;7.36;100.00;98039.13;5038058;28;20053;-78
2024/01/03 03:39:44;;;;;;;14.75;2.72;;;;;;;7.37;100.00;98045.22;5036825;28;20074;-78
2024/01/03 03:42:11;;;;;;;14.50;2.20;;;;;;;7.37;100.00;98045.22;5033445;28;20056;-79
2024/01/03 03:44:40;;;;;;;7.82;1.85;;;;;;;7.38;100.00;98053.03;5028556;28;20538;-79
2024/01/03 03:47:08;;;;;;;7.15;1.90;;;;;;;7.39;100.00;98051.25;5048850;28;20399;-79
2024/01/03 03:49:36;;;;;;;13.23;1.95;;;;;;;7.39;100.00;98066.97;5019406;28;20075;-78
2024/01/03 03:52:03;;;;;;;6.78;1.70;;;;;;;7.40;100.00;98068.72;5039827;28;20454;-79
2024/01/03 03:54:31;;;;;;;9.13;1.80;;;;;;;7.40;100.00;98087.91;4999319;28;20049;-80
2024/01/03 03:56:58;;;;;;;7.72;1.60;;;;;;;7.44;100.00;98062.47;5047257;28;20556;-77
2024/01/03 03:59:26;;;;;;;12.63;2.72;;;;;;;7.46;100.00;98092.13;5048272;28;20037;-79
2024/01/03 04:01:54;;;;;;;11.50;1.60;;;;;;;7.50;100.00;98096.38;5047729;28;20469;-79
2024/01/03 04:04:22;;;;;;;11.88;2.05;;;;;;;7.51;100.00;98118.22;5043003;28;20048;-79
2024/01/03 04:06:49;;;;;;;10.27;1.63;;;;;;;7.52;100.00;98098.94;5073668;28;20410;-78
2024/01/03 04:09:19;;;;;;;14.50;2.60;;;;;;;7.53;100.00;98092.81;5038747;28;20064;-81
2024/01/03 04:11:46;;;;;;;13.03;2.00;;;;;;;7.55;100.00;98122.44;5028582;28;20037;-79
2024/01/03 04:14:14;;;;;;;6.40;1.48;;;;;;;7.55;100.00;98119.84;5049038;28;20303;-79
2024/01/03 04:16:41;;;;;;;10.77;1.80;;;;;;;7.55;100.00;98125.94;5049066;28;20048;-79
2024/01/03 04:19:09;;;;;;;9.73;1.73;;;;;;;7.56;100.00;98130.28;5040926;28;20042;-79
2024/01/03 04:21:36;;;;;;;9.55;2.50;;;;;;;7.56;100.00;98132.03;5051657;28;20048;-78
2024/01/03 04:24:05;;;;;;;5.88;1.83;;;;;;;7.58;100.00;98140.69;5049701;28;20075;-78
2024/01/03 04:26:33;;;;;;;8.45;1.63;;;;;;;7.57;100.00;98146.84;5001466;28;20053;-78
2024/01/03 04:29:00;;;;;;;7.35;1.60;;;;;;;7.58;100.00;98149.44;5048251;28;20410;-79
2024/01/03 04:31:28;;;;;;;8.45;1.95;;;;;;;7.59;100.00;98155.53;5028582;28;20052;-79
2024/01/03 04:33:58;;;;;;;6.22;1.40;;;;;;;7.59;100.00;98166.88;5049390;28;20371;-79
2024/01/03 04:36:26;;;;;;;9.32;1.63;;;;;;;7.57;100.00;98167.81;5036460;28;20068;-79
2024/01/03 04:38:54;;;;;;;7.63;2.30;;;;;;;7.58;100.00;98159.03;5034883;28;20052;-79
2024/01/03 04:41:21;;;;;;;5.55;1.83;;;;;;;7.58;100.00;98174.75;5006698;28;20041;-79
2024/01/03 04:43:49;;;;;;;8.93;1.67;;;;;;;7.57;100.00;98167.81;5045726;28;20041;-78
2024/01/03 04:46:16;;;;;;;3.63;1.15;;;;;;;7.55;100.00;98173.09;5045327;28;20057;-78
2024/01/03 04:48:44;;;;;;;4.93;1.50;;;;;;;7.57;100.00;98173.06;5044677;28;20040;-79
2024/01/03 04:51:12;;;;;;;13.88;1.95;;;;;;;7.56;100.00;98172.22;5029806;28;20053;-80
2024/01/03 04:53:43;;;;;;;7.45;1.40;;;;;;;7.58;100.00;98178.28;5034577;28;20041;-79
2024/01/03 04:56:10;;;;;;;5.35;1.30;;;;;;;7.59;100.00;98179.13;5012162;28;20049;-79
2024/01/03 04:58:38;;;;;;;5.93;1.50;;;;;;;7.59;100.00;98193.06;5034409;28;20063;-78
2024/01/03 05:01:05;;;;;;;3.70;1.17;;;;;;;7.60;100.00;98188.72;5039225;28;20057;-78
2024/01/03 05:03:33;;;;;;;6.88;1.90;;;;;;;7.59;100.00;98200.09;5048408;28;20053;-79
2024/01/03 05:06:00;;;;;;;6.15;1.73;;;;;;;7.60;100.00;98196.56;5041379;28;20045;-79
2024/01/03 05:08:28;;;;;;;7.25;1.45;;;;;;;7.61;100.00;98200.91;5024678;28;20056;-80
2024/01/03 05:10:55;;;;;;;13.85;2.50;;;;;;;7.62;100.00;98202.63;5044210;28;20044;-79
2024/01/03 05:13:22;;;;;;;8.20;1.85;;;;;;;7.63;100.00;98201.72;5006893;28;20056;-80
2024/01/03 05:15:50;;;;;;;7.38;2.03;;;;;;;7.63;100.00;98209.56;5046167;28;20480;-79
2024/01/03 05:18:18;;;;;;;4.90;1.40;;;;;;;7.62;100.00;98213.13;5075484;28;20595;-79
2024/01/03 05:20:45;;;;;;;4.28;1.10;;;;;;;7.63;100.00;98209.56;5044356;28;20409;-80
2024/01/03 05:23:13;;;;;;;7.35;2.10;;;;;;;7.63;100.00;98227.94;5023639;28;20037;-79
2024/01/03 05:25:41;;;;;;;7.55;1.40;;;;;;;7.63;100.00;98235.78;5044602;28;20045;-80
2024/01/03 05:28:08;;;;;;;11.82;1.95;;;;;;;7.63;100.00;98234.94;5011653;28;20040;-80
2024/01/03 05:30:36;;;;;;;7.65;1.85;;;;;;;7.61;100.00;98242.84;5039476;28;20065;-79
2024/01/03 05:33:04;;;;;;;9.15;2.28;;;;;;;7.60;100.00;98238.50;5033143;28;20045;-79
2024/01/03 05:35:31;;;;;;;6.50;1.83;;;;;;;7.60;100.00;98241.13;5026178;28;20898;-79
2024/01/03 05:37:59;;;;;;;6.97;2.38;;;;;;;7.60;100.00;98243.75;5013378;28;20056;-79
2024/01/03 05:40:26;;;;;;;9.82;2.10;;;;;;;7.64;100.00;98247.13;5024795;28;20059;-79
2024/01/03 05:42:53;;;;;;;5.78;1.95;;;;;;;7.65;100.00;98252.31;5005641;28;20056;-79
2024/01/03 05:45:21;;;;;;;4.40;1.63;;;;;;;7.68;100.00;98249.63;5057499;28;20095;-79
2024/01/03 05:47:48;;;;;;;8.20;1.95;;;;;;;7.70;100.00;98262.72;5037402;28;20048;-80
2024/01/03 05:50:16;;;;;;;9.48;2.03;;;;;;;7.71;100.00;98260.06;5041596;28;20053;-80
2024/01/03 05:52:43;;;;;;;8.90;2.22;;;;;;;7.72;100.00;98272.25;5038482;28;20041;-79
2024/01/03 05:55:11;;;;;;;13.15;2.88;;;;;;;7.74;100.00;98280.06;5034349;28;20056;-79
2024/01/03 05:57:38;;;;;;;7.43;1.95;;;;;;;7.74;100.00;98296.66;5020293;28;20052;-79
2024/01/03 06:00:06;;;;;;;9.00;2.08;;;;;;;7.75;100.00;98298.38;5008736;28;20120;-79
2024/01/03 06:02:34;;;;;;;12.98;1.92;;;;;;;7.75;100.00;98295.78;5042692;28;20064;-80
2024/01/03 06:05:01;;;;;;;8.90;1.70;;;;;;;7.77;100.00;98298.34;5028556;28;20053;-78
2024/01/03 06:07:29;;;;;;;9.32;2.00;;;;;;;7.75;100.00;98302.75;5040604;28;20079;-79
2024/01/03 06:09:56;;;;;;;8.32;2.25;;;;;;;7.74;100.00;98303.66;5028505;28;20049;-78
2024/01/03 06:12:24;;;;;;;6.70;1.40;;;;;;;7.72;100.00;98308.09;5032097;28;20037;-79
2024/01/03 06:14:52;;;;;;;4.90;1.73;;;;;;;7.70;100.00;98310.75;4987708;28;20053;-78
2024/01/03 06:17:19;;;;;;;5.95;1.80;;;;;;;7.67;100.00;98318.69;5041411;28;20048;-79
2024/01/03 06:19:46;;;;;;;7.78;1.80;;;;;;;7.61;100.00;98331.94;5077076;28;20049;-79
2024/01/03 06:22:15;;;;;;;5.85;1.52;;;;;;;7.55;100.00;98330.34;5041486;28;20501;-79
2024/01/03 06:24:42;;;;;;;5.20;1.10;;;;;;;7.50;100.00;98323.50;5036817;28;20056;-79
2024/01/03 06:27:10;;;;;;;8.80;1.85;;;;;;;7.45;100.00;98346.31;5017039;28;20053;-79
2024/01/03 06:29:37;;;;;;;4.95;1.58;;;;;;;7.38;100.00;98322.88;5010809;28;20049;-80
2024/01/03 06:32:08;;;;;;;8.02;2.10;;;;;;;7.36;100.00;98353.50;5028679;28;20052;-79
2024/01/03 06:34:35;;;;;;;6.13;1.55;;;;;;;7.35;100.00;98345.69;5030464;28;20072;-79
2024/01/03 06:37:03;;;;;;;10.95;1.77;;;;;;;7.33;100.00;98358.81;5023817;28;20056;-79
2024/01/03 06:39:30;;;;;;;6.97;2.20;;;;;;;7.32;100.00;98354.47;5032057;28;20053;-79
2024/01/03 06:41:58;;;;;;;12.80;2.08;;;;;;;7.32;100.00;98366.72;5036863;28;20056;-79
2024/01/03 06:44:26;;;;;;;10.65;2.15;;;;;;;7.31;100.00;98360.59;5028981;28;20057;-78
2024/01/03 06:46:54;;;;;;;16.17;2.80;;;;;;;7.33;100.00;98365.81;5013149;28;20041;-79
2024/01/03 06:49:22;;;;;;;18.40;2.95;;;;;;;7.35;100.00;98371.88;5027714;28;20096;-80
2024/01/03 06:51:49;;;;;;;14.63;2.80;;;;;;;7.36;100.00;98364.00;5046968;28;20056;-77
2024/01/03 06:54:17;;;;;;;24.10;4.05;;;;;;;7.38;100.00;98377.06;5044446;28;20508;-78
2024/01/03 06:56:44;;;;;;;17.35;2.90;;;;;;;7.40;100.00;98378.72;5040347;28;20049;-79
2024/01/03 06:59:12;;;;;;;17.65;3.25;;;;;;;7.44;100.00;98387.38;5015795;28;20050;-78
2024/01/03 07:01:39;;;;;;;19.20;3.05;;;;;;;7.45;100.00;98389.13;4997706;28;20041;-78
2024/01/03 07:04:07;;;;;;;10.43;2.55;;;;;;;7.45;100.00;98402.22;5026949;28;20037;-78
2024/01/03 07:06:34;;;;;;;16.95;3.17;;;;;;;7.44;100.00;98403.09;5044262;28;20410;-79
2024/01/03 07:09:02;;;;;;;17.08;2.65;;;;;;;7.44;100.00;98421.44;5007944;28;20057;-78
2024/01/03 07:11:30;;;;;;;18.63;3.30;;;;;;;7.43;100.00;98401.41;5059400;28;20056;-79
2024/01/03 07:13:59;;;;;;;18.85;3.60;;;;;;;7.45;100.00;98406.59;5019504;28;20049;-79
2024/01/03 07:16:27;;;;;;;19.00;3.08;;;;;;;7.45;100.00;98409.19;5048014;28;20041;-78
2024/01/03 07:18:54;;;;;;;17.35;3.38;;;;;;;7.44;100.00;98410.13;5003669;28;20044;-78
2024/01/03 07:21:22;;;;;;;19.63;3.92;;;;;;;7.44;100.00;98412.72;5022556;28;20502;-79
2024/01/03 07:23:51;;;;;;;24.67;3.88;;;;;;;7.44;100.00;98410.97;5034973;28;20053;-78
2024/01/03 07:26:18;;;;;;;27.25;5.18;;;;;;;7.46;100.00;98413.56;5044072;28;20045;-79
2024/01/03 07:28:46;;;;;;;23.98;3.88;;;;;;;7.48;100.00;98417.00;5033331;28;20052;-78
2024/01/03 07:31:13;;;;;;;20.25;3.40;;;;;;;7.50;100.00;98412.59;5038923;28;20056;-78
2024/01/03 07:33:41;;;;;;;24.60;4.55;;;;;;;7.53;100.00;98428.25;5025197;28;20060;-78
2024/01/03 07:36:09;;;;;;;28.38;5.03;;;;;;;7.55;100.00;98427.31;5046617;28;20048;-78
2024/01/03 07:38:37;;;;;;;29.10;4.82;;;;;;;7.58;100.00;98431.59;5047529;28;20056;-78
2024/01/03 07:41:07;;;;;;;22.48;4.25;;;;;;;7.59;100.00;98430.72;5017195;28;20151;-78
2024/01/03 07:43:34;;;;;;;17.17;3.63;;;;;;;7.60;100.00;98430.69;5035758;28;20045;-79
2024/01/03 07:46:01;;;;;;;14.73;2.58;;;;;;;7.62;100.00;98438.53;5032176;28;20422;-78
2024/01/03 07:48:29;;;;;;;29.48;4.35;;;;;;;7.63;100.00;98429.75;4999076;28;20045;-77
2024/01/03 07:50:57;;;;;;;23.70;3.63;;;;;;;7.63;100.00;98436.75;5030760;28;20840;-78
2024/01/03 07:53:24;;;;;;;16.58;3.28;;;;;;;7.61;100.00;98431.53;5041031;28;20052;-79
2024/01/03 07:55:53;;;;;;;26.30;4.45;;;;;;;7.60;100.00;98440.31;5022147;28;20053;-78
2024/01/03 07:58:20;;;;;;;26.73;3.55;;;;;;;7.61;100.00;98455.13;5039801;28;20056;-78
2024/01/03 08:00:48;;;;;;;25.52;3.97;;;;;;;7.61;100.00;98457.75;5023454;28;20044;-79
2024/01/03 08:03:15;;;;;;;22.45;3.78;;;;;;;7.63;100.00;98455.09;5028007;28;20477;-79
2024/01/03 08:05:43;;;;;;;18.70;4.13;;;;;;;7.64;100.00;98462.06;5043856;28;20136;-79
2024/01/03 08:08:10;;;;;;;20.33;3.30;;;;;;;7.66;100.00;98460.28;5031981;28;20421;-79
2024/01/03 08:10:38;;;;;;;19.48;3.85;;;;;;;7.66;100.00;98462.91;5019647;28;20513;-78
2024/01/03 08:13:06;;;;;;;19.77;4.18;;;;;;;7.67;100.00;98470.72;5016411;28;20042;-78
2024/01/03 08:15:34;;;;;;;21.85;3.60;;;;;;;7.69;100.00;98453.19;5036846;28;20053;-79
2024/01/03 08:18:01;;;;;;;19.80;3.75;;;;;;;7.68;100.00;98461.97;5025731;28;20049;-78
2024/01/03 08:20:30;;;;;;;15.60;2.72;;;;;;;7.68;100.00;98467.22;5023684;28;20506;-78
2024/01/03 08:22:58;;;;;;;15.65;4.13;;;;;;;7.69;100.00;98474.16;5023693;28;20816;-79
2024/01/03 08:25:25;;;;;;;16.13;2.85;;;;;;;7.69;100.00;98482.03;5043855;28;20416;-79
2024/01/03 08:27:53;;;;;;;17.55;3.40;;;;;;;7.70;100.00;98481.13;5039284;28;20398;-78
2024/01/03 08:30:21;;;;;;;12.65;3.05;;;;;;;7.72;100.00;98488.97;5025827;28;20060;-78
2024/01/03 08:32:48;;;;;;;20.50;3.63;;;;;;;7.72;100.00;98481.09;5063584;28;24636;-78
2024/01/03 08:35:16;;;;;;;24.52;3.92;;;;;;;7.74;100.00;98480.16;4996677;28;20045;-78
2024/01/03 08:37:43;;;;;;;21.30;3.55;;;;;;;7.75;100.00;98487.16;5031546;28;20048;-79
2024/01/03 08:40:11;;;;;;;16.02;3.35;;;;;;;7.77;100.00;98497.59;5029755;28;20057;-78
2024/01/03 08:42:38;;;;;;;15.43;2.92;;;;;;;7.77;100.00;98503.69;5034674;28;20057;-78
2024/01/03 08:45:06;;;;;;;21.63;3.65;;;;;;;7.80;100.00;98505.38;5040448;28;20045;-77
2024/01/03 08:47:34;;;;;;;24.83;4.20;;;;;;;7.79;100.00;98507.16;5028920;28;20057;-80
2024/01/03 08:50:02;;;;;;;21.90;4.53;;;;;;;7.79;100.00;98501.91;5034140;28;20052;-78
2024/01/03 08:52:30;;;;;;;21.15;4.50;;;;;;;7.78;100.00;98505.41;5011457;28;20045;-78
2024/01/03 08:54:59;;;;;;;18.05;3.17;;;;;;;7.76;100.00;98504.59;5038430;28;20044;-78
2024/01/03 08:57:27;;;;;;;18.83;3.33;;;;;;;7.73;100.00;98507.28;5039237;28;20048;-79
2024/01/03 08:59:54;;;;;;;23.23;4.72;;;;;;;7.72;100.00;98517.81;5027071;28;20057;-77
2024/01/03 09:02:21;;;;;;;18.45;3.88;;;;;;;7.69;100.00;98510.84;5045421;28;20037;-78
2024/01/03 09:04:49;;;;;;;22.08;3.97;;;;;;;7.69;100.00;98518.72;5029892;28;20770;-78
2024/01/03 09:07:17;;;;;;;20.65;3.70;;;;;;;7.68;100.00;98522.25;5005908;28;20037;-77
2024/01/03 09:09:45;;;;;;;25.35;3.72;;;;;;;7.69;100.00;98515.25;5039613;28;20043;-78
2024/01/03 09:12:12;;;;;;;20.52;3.95;;;;;;;7.69;100.00;98517.88;5039147;28;20436;-78
2024/01/03 09:14:40;;;;;;;16.05;2.70;;;;;;;7.70;100.00;98520.47;5034968;28;20037;-77
2024/01/03 09:17:08;;;;;;;16.65;3.08;;;;;;;7.70;100.00;98501.25;5035291;28;20064;-77
2024/01/03 09:19:36;;;;;;;12.63;2.83;;;;;;;7.70;100.00;98533.56;5023253;28;20505;-79
2024/01/03 09:22:03;;;;;;;12.75;2.58;;;;;;;7.73;100.00;98535.25;4994818;28;20049;-79
2024/01/03 09:24:31;;;;;;;8.88;2.45;;;;;;;7.75;100.00;98533.44;5033303;28;20056;-79
2024/01/03 09:27:00;;;;;;;13.00;2.22;;;;;;;7.76;100.00;98535.19;5048436;28;20045;-79
2024/01/03 09:29:28;;;;;;;12.43;2.13;;;;;;;7.76;100.00;98536.03;5022092;28;20056;-80
2024/01/03 09:31:56;;;;;;;15.40;2.28;;;;;;;7.78;100.00;98543.88;5024481;28;20056;-77
2024/01/03 09:34:24;;;;;;;12.40;2.17;;;;;;;7.80;100.00;98526.34;5037812;28;20497;-78
2024/01/03 09:36:55;;;;;;;12.20;2.45;;;;;;;7.85;100.00;98544.63;4996371;28;20037;-78
2024/01/03 09:39:22;;;;;;;18.50;2.75;;;;;;;7.87;100.00;98542.81;5027259;28;20562;-78
2024/01/03 09:41:49;;;;;;;15.88;3.35;;;;;;;7.90;100.00;98550.59;5030175;28;20045;-79
2024/01/03 09:44:18;;;;;;;17.27;3.42;;;;;;;7.92;100.00;98548.81;5042722;28;20045;-79
2024/01/03 09:46:48;;;;;;;9.02;3.03;;;;;;;7.94;100.00;98550.50;5025274;28;20048;-79
2024/01/03 09:49:18;;;;;;;20.83;3.08;;;;;;;7.97;100.00;98554.81;5027024;28;20052;-79
2024/01/03 09:51:46;;;;;;;18.63;3.10;;;;;;;7.98;100.00;98557.41;5007815;28;20052;-79
2024/01/03 09:54:14;;;;;;;28.48;4.25;;;;;;;8.00;100.00;98568.72;4987014;28;20053;-78
2024/01/03 09:56:43;;;;;;;40.13;4.28;;;;;;;8.00;100.00;98570.50;5017405;28;20053;-78
2024/01/03 09:59:10;;;;;;;29.13;4.30;;;;;;;7.97;100.00;98566.16;5034663;28;20057;-78
2024/01/03 10:01:38;;;;;;;13.93;2.70;;;;;;;7.97;100.00;98563.53;5036794;28;20045;-78
2024/01/03 10:04:06;;;;;;;17.45;3.88;;;;;;;7.97;100.00;98573.16;5022835;28;20044;-78
2024/01/03 10:06:52;;;;;;;12.82;2.42;;;;;;;7.94;100.00;98578.47;5031600;28;20057;-78
2024/01/03 10:09:21;;;;;;;13.85;2.58;;;;;;;7.92;100.00;98577.66;5011193;28;20044;-78
2024/01/03 10:11:51;;;;;;;13.40;2.13;;;;;;;7.93;100.00;98584.63;5031338;28;20053;-78
2024/01/03 10:14:21;;;;;;;13.70;2.80;;;;;;;7.94;100.00;98581.97;5043628;28;20057;-79
2024/01/03 10:16:49;;;;;;;10.70;2.83;;;;;;;7.98;100.00;98590.66;5021402;28;20065;-79
2024/01/03 10:19:20;;;;;;;15.85;3.22;;;;;;;8.00;100.00;98586.22;5005404;28;20585;-79
2024/01/03 10:21:53;;;;;;;16.20;2.83;;;;;;;8.02;100.00;98581.81;5029300;28;20052;-78
2024/01/03 10:24:24;;;;;;;12.07;3.13;;;;;;;8.03;100.00;98585.28;4996792;28;20501;-78
2024/01/03 10:26:53;;;;;;;13.30;2.33;;;;;;;8.04;100.00;98589.66;5024135;28;20049;-78
2024/01/03 10:29:21;;;;;;;14.52;3.13;;;;;;;8.05;100.00;98596.59;5051040;28;20056;-79
2024/01/03 10:31:50;;;;;;;16.80;3.13;;;;;;;8.04;100.00;98595.75;5032141;28;20651;-78
2024/01/03 10:34:23;;;;;;;15.35;2.90;;;;;;;7.99;100.00;98605.47;5025613;28;20041;-79
2024/01/03 10:36:53;;;;;;;17.52;2.47;;;;;;;7.94;100.00;98602.06;5041439;28;20053;-78
2024/01/03 10:39:22;;;;;;;10.18;2.22;;;;;;;7.89;100.00;98604.81;5003645;28;20045;-80
2024/01/03 10:41:51;;;;;;;19.23;3.33;;;;;;;7.87;100.00;98614.47;5041108;28;20422;-78
2024/01/03 10:44:19;;;;;;;12.95;3.35;;;;;;;7.85;100.00;98597.06;5041543;28;20033;-78
2024/01/03 10:46:48;;;;;;;9.85;1.90;;;;;;;7.78;100.00;98602.41;5021538;28;20057;-78
2024/01/03 10:49:16;;;;;;;9.40;1.83;;;;;;;7.71;100.00;98611.34;5027592;28;20068;-77
2024/01/03 10:51:51;;;;;;;4.95;1.60;;;;;;;7.63;100.00;98613.22;5033639;28;20052;-78
2024/01/03 10:54:22;;;;;;;3.78;1.48;;;;;;;7.57;100.00;98619.47;5012686;28;20040;-78
2024/01/03 10:56:52;;;;;;;6.63;1.58;;;;;;;7.53;100.00;98624.81;5026869;28;20106;-78
2024/01/03 10:59:28;;;;;;;6.57;2.42;;;;;;;7.51;100.00;98619.59;5045777;28;20398;-78
2024/01/03 11:02:03;;;;;;;5.80;2.42;;;;;;;7.51;100.00;98627.44;5022661;28;20065;-79
2024/01/03 11:04:54;;;;;;;7.10;2.28;;;;;;;7.52;100.00;98628.31;5044589;28;20045;-80
2024/01/03 11:07:29;;;;;;;13.57;2.33;;;;;;;7.52;100.00;98623.91;5028305;28;20064;-80
2024/01/03 11:09:57;;;;;;;13.82;2.70;;;;;;;7.53;100.00;98632.66;5039392;28;20044;-80
2024/01/03 11:12:30;;;;;;;12.80;2.40;;;;;;;7.54;100.00;98639.63;4989562;28;20021;-79
2024/01/03 11:15:22;;;;;;;16.17;3.28;;;;;;;7.56;100.00;98627.34;5047292;28;20057;-80
2024/01/03 11:18:00;;;;;;;11.23;2.25;;;;;;;7.54;100.00;98624.78;5047542;28;20056;-78
2024/01/03 11:20:28;;;;;;;13.57;2.65;;;;;;;7.54;100.00;98640.50;5042650;28;20052;-79
2024/01/03 11:23:04;;;;;;;16.33;3.30;;;;;;;7.56;100.00;98627.34;5036043;28;20037;-79
2024/01/03 11:25:51;;;;;;;8.75;1.90;;;;;;;7.58;100.00;98628.19;5027084;28;20049;-79
2024/01/03 11:28:32;;;;;;;11.43;2.17;;;;;;;7.59;100.00;98616.81;4990643;28;20064;-78
2024/01/03 11:31:00;;;;;;;7.18;2.17;;;;;;;7.63;100.00;98623.72;5045422;28;20056;-78
2024/01/03 11:33:30;;;;;;;8.93;2.60;;;;;;;7.69;100.00;98630.59;5047774;28;20070;-80
2024/01/03 11:35:58;;;;;;;11.23;2.33;;;;;;;7.74;100.00;98616.50;5024736;28;20048;-78